Friday 24th February 2017 - KPAO 241647Z VRB04KT 10SM FEW030 07/04 A3028

Resource Scheduler

members_1

Schedule your next flight here with the club aircraft scheduler. Club login information required.

Events

Tracon

Advantage Aviation club members share a passion for flying. Our events include group flying trips, seminars, classes, and even the occasional BBQ!

Weather Links

members_3

Before you fly with us, confirm flight planning, weather and news. Here you will find links to various information sources to help you plan a safe, enjoyable flight.

Accomplishments

SitePhoto1

We are proud of our member’s flying achievements. Check out the latest milestones from our students and instructors, and get inspired to take your next step!

Forms & Downloads

home_1

Access and download membership application and flight forms on our site.

Advantage Store

members_6

Purchase Advantage Aviation branded apparel online here.